sensor_id;sensor_type;location;lat;lon;timestamp;P1;durP1;ratioP1;P2;durP2;ratioP2
73599;SDS011;61877;48.246;9.220;2024-01-30T02:59:48;24.40;;;12.15;;
73599;SDS011;61877;48.246;9.220;2024-01-30T03:02:14;25.80;;;12.30;;
73599;SDS011;61877;48.246;9.220;2024-01-30T03:04:43;26.48;;;12.57;;
73599;SDS011;61877;48.246;9.220;2024-01-30T03:07:18;24.20;;;12.37;;
73599;SDS011;61877;48.246;9.220;2024-01-30T03:09:47;23.88;;;12.20;;
73599;SDS011;61877;48.246;9.220;2024-01-30T03:12:14;23.35;;;12.45;;
73599;SDS011;61877;48.246;9.220;2024-01-30T03:14:41;24.45;;;12.02;;
73599;SDS011;61877;48.246;9.220;2024-01-30T03:17:09;25.20;;;12.63;;
73599;SDS011;61877;48.246;9.220;2024-01-30T03:19:36;23.90;;;11.70;;
73599;SDS011;61877;48.246;9.220;2024-01-30T03:22:03;25.38;;;12.95;;
73599;SDS011;61877;48.246;9.220;2024-01-30T03:24:30;24.98;;;12.15;;
73599;SDS011;61877;48.246;9.220;2024-01-30T03:26:56;24.77;;;11.85;;
73599;SDS011;61877;48.246;9.220;2024-01-30T03:29:23;25.30;;;12.48;;
73599;SDS011;61877;48.246;9.220;2024-01-30T03:31:50;23.67;;;11.93;;
73599;SDS011;61877;48.246;9.220;2024-01-30T03:34:18;23.50;;;12.52;;
73599;SDS011;61877;48.246;9.220;2024-01-30T03:36:48;23.40;;;11.48;;
73599;SDS011;61877;48.246;9.220;2024-01-30T03:39:15;23.02;;;11.73;;
73599;SDS011;61877;48.246;9.220;2024-01-30T03:41:42;23.08;;;11.25;;
73599;SDS011;61877;48.246;9.220;2024-01-30T03:44:11;23.57;;;11.77;;
73599;SDS011;61877;48.246;9.220;2024-01-30T03:46:38;25.58;;;12.88;;
73599;SDS011;61877;48.246;9.220;2024-01-30T03:49:05;22.90;;;12.25;;
73599;SDS011;61877;48.246;9.220;2024-01-30T03:51:33;23.80;;;12.13;;
73599;SDS011;61877;48.246;9.220;2024-01-30T03:54:00;24.58;;;12.43;;
73599;SDS011;61877;48.246;9.220;2024-01-30T03:56:26;24.27;;;11.93;;
73599;SDS011;61877;48.246;9.220;2024-01-30T03:58:53;26.27;;;11.80;;
73599;SDS011;61877;48.246;9.220;2024-01-30T04:01:21;24.30;;;12.05;;
73599;SDS011;61877;48.246;9.220;2024-01-30T04:03:47;23.98;;;11.55;;
73599;SDS011;61877;48.246;9.220;2024-01-30T04:06:14;24.33;;;12.48;;
73599;SDS011;61877;48.246;9.220;2024-01-30T04:08:42;24.20;;;12.60;;
73599;SDS011;61877;48.246;9.220;2024-01-30T04:11:09;23.40;;;11.77;;
73599;SDS011;61877;48.246;9.220;2024-01-30T04:13:36;22.27;;;9.98;;
73599;SDS011;61877;48.246;9.220;2024-01-30T04:16:03;23.95;;;11.50;;
73599;SDS011;61877;48.246;9.220;2024-01-30T04:18:30;40.17;;;24.27;;
73599;SDS011;61877;48.246;9.220;2024-01-30T04:20:56;30.27;;;16.73;;
73599;SDS011;61877;48.246;9.220;2024-01-30T04:23:23;26.52;;;13.15;;
73599;SDS011;61877;48.246;9.220;2024-01-30T04:25:51;21.45;;;10.98;;
73599;SDS011;61877;48.246;9.220;2024-01-30T04:28:17;22.27;;;11.63;;
73599;SDS011;61877;48.246;9.220;2024-01-30T04:30:44;24.50;;;12.55;;
73599;SDS011;61877;48.246;9.220;2024-01-30T04:33:11;24.17;;;12.40;;
73599;SDS011;61877;48.246;9.220;2024-01-30T04:35:37;28.58;;;12.88;;
73599;SDS011;61877;48.246;9.220;2024-01-30T04:38:04;24.88;;;12.25;;
73599;SDS011;61877;48.246;9.220;2024-01-30T04:40:31;26.58;;;12.88;;
73599;SDS011;61877;48.246;9.220;2024-01-30T04:42:59;26.38;;;12.88;;
73599;SDS011;61877;48.246;9.220;2024-01-30T04:45:25;25.43;;;13.00;;
73599;SDS011;61877;48.246;9.220;2024-01-30T04:47:52;27.02;;;13.00;;
73599;SDS011;61877;48.246;9.220;2024-01-30T04:50:18;24.67;;;12.57;;
73599;SDS011;61877;48.246;9.220;2024-01-30T04:52:45;23.73;;;12.23;;
73599;SDS011;61877;48.246;9.220;2024-01-30T04:55:11;25.58;;;12.45;;
73599;SDS011;61877;48.246;9.220;2024-01-30T04:57:38;23.77;;;12.53;;
73599;SDS011;61877;48.246;9.220;2024-01-30T05:00:07;24.58;;;12.63;;
73599;SDS011;61877;48.246;9.220;2024-01-30T05:02:34;25.08;;;12.75;;
73599;SDS011;61877;48.246;9.220;2024-01-30T05:05:01;26.17;;;12.55;;
73599;SDS011;61877;48.246;9.220;2024-01-30T05:07:28;24.23;;;12.23;;
73599;SDS011;61877;48.246;9.220;2024-01-30T05:09:55;25.90;;;12.90;;
73599;SDS011;61877;48.246;9.220;2024-01-30T05:12:24;24.02;;;12.35;;
73599;SDS011;61877;48.246;9.220;2024-01-30T05:14:51;22.00;;;11.63;;
73599;SDS011;61877;48.246;9.220;2024-01-30T05:17:19;25.73;;;12.73;;
73599;SDS011;61877;48.246;9.220;2024-01-30T05:19:46;25.60;;;13.05;;
73599;SDS011;61877;48.246;9.220;2024-01-30T05:22:13;27.47;;;12.93;;
73599;SDS011;61877;48.246;9.220;2024-01-30T05:24:39;24.02;;;12.70;;
73599;SDS011;61877;48.246;9.220;2024-01-30T05:27:06;25.02;;;12.25;;
73599;SDS011;61877;48.246;9.220;2024-01-30T05:29:33;24.67;;;12.63;;
73599;SDS011;61877;48.246;9.220;2024-01-30T05:31:59;27.55;;;13.15;;
73599;SDS011;61877;48.246;9.220;2024-01-30T05:34:27;25.87;;;12.53;;
73599;SDS011;61877;48.246;9.220;2024-01-30T05:36:54;23.13;;;11.75;;
73599;SDS011;61877;48.246;9.220;2024-01-30T05:39:20;21.02;;;11.82;;
73599;SDS011;61877;48.246;9.220;2024-01-30T05:41:47;24.75;;;12.73;;
73599;SDS011;61877;48.246;9.220;2024-01-30T05:44:13;24.02;;;11.93;;
73599;SDS011;61877;48.246;9.220;2024-01-30T05:46:40;23.73;;;11.77;;
73599;SDS011;61877;48.246;9.220;2024-01-30T05:49:09;24.40;;;12.10;;
73599;SDS011;61877;48.246;9.220;2024-01-30T05:51:37;24.45;;;11.80;;
73599;SDS011;61877;48.246;9.220;2024-01-30T05:54:03;23.75;;;12.02;;
73599;SDS011;61877;48.246;9.220;2024-01-30T05:56:30;23.15;;;11.82;;
73599;SDS011;61877;48.246;9.220;2024-01-30T05:58:57;25.27;;;12.03;;
73599;SDS011;61877;48.246;9.220;2024-01-30T06:01:23;24.45;;;12.02;;
73599;SDS011;61877;48.246;9.220;2024-01-30T06:03:50;26.52;;;12.80;;
73599;SDS011;61877;48.246;9.220;2024-01-30T06:06:17;26.88;;;13.13;;
73599;SDS011;61877;48.246;9.220;2024-01-30T06:08:45;30.42;;;14.60;;
73599;SDS011;61877;48.246;9.220;2024-01-30T06:11:11;31.00;;;14.70;;
73599;SDS011;61877;48.246;9.220;2024-01-30T06:13:38;30.23;;;14.88;;
73599;SDS011;61877;48.246;9.220;2024-01-30T06:16:08;31.55;;;14.20;;
73599;SDS011;61877;48.246;9.220;2024-01-30T06:18:35;25.15;;;12.88;;
73599;SDS011;61877;48.246;9.220;2024-01-30T06:21:02;27.95;;;13.25;;
73599;SDS011;61877;48.246;9.220;2024-01-30T06:23:30;25.53;;;12.70;;
73599;SDS011;61877;48.246;9.220;2024-01-30T06:25:58;27.17;;;12.68;;
73599;SDS011;61877;48.246;9.220;2024-01-30T06:28:30;23.88;;;12.55;;
73599;SDS011;61877;48.246;9.220;2024-01-30T06:30:57;26.30;;;13.25;;
73599;SDS011;61877;48.246;9.220;2024-01-30T06:33:24;25.48;;;12.43;;
73599;SDS011;61877;48.246;9.220;2024-01-30T06:35:50;26.50;;;13.80;;
73599;SDS011;61877;48.246;9.220;2024-01-30T06:38:17;23.80;;;12.80;;
73599;SDS011;61877;48.246;9.220;2024-01-30T06:40:44;25.23;;;12.35;;
73599;SDS011;61877;48.246;9.220;2024-01-30T06:43:12;25.75;;;12.60;;
73599;SDS011;61877;48.246;9.220;2024-01-30T06:45:39;23.35;;;12.38;;
73599;SDS011;61877;48.246;9.220;2024-01-30T06:48:07;22.60;;;12.23;;
73599;SDS011;61877;48.246;9.220;2024-01-30T06:50:34;26.80;;;13.60;;
73599;SDS011;61877;48.246;9.220;2024-01-30T06:53:01;25.52;;;13.93;;
73599;SDS011;61877;48.246;9.220;2024-01-30T06:55:37;27.77;;;13.20;;
73599;SDS011;61877;48.246;9.220;2024-01-30T06:58:04;27.27;;;13.57;;
73599;SDS011;61877;48.246;9.220;2024-01-30T07:00:32;24.90;;;13.63;;
73599;SDS011;61877;48.246;9.220;2024-01-30T07:02:59;37.83;;;18.33;;
73599;SDS011;61877;48.246;9.220;2024-01-30T07:05:26;38.88;;;18.70;;
73599;SDS011;61877;48.246;9.220;2024-01-30T07:07:52;40.15;;;20.30;;
73599;SDS011;61877;48.246;9.220;2024-01-30T07:10:19;38.58;;;19.77;;
73599;SDS011;61877;48.246;9.220;2024-01-30T07:12:46;38.07;;;18.20;;
73599;SDS011;61877;48.246;9.220;2024-01-30T07:15:13;40.03;;;20.73;;
73599;SDS011;61877;48.246;9.220;2024-01-30T07:17:41;41.78;;;20.35;;
73599;SDS011;61877;48.246;9.220;2024-01-30T07:20:08;38.65;;;20.83;;
73599;SDS011;61877;48.246;9.220;2024-01-30T07:22:37;42.38;;;21.23;;
73599;SDS011;61877;48.246;9.220;2024-01-30T07:25:04;40.67;;;20.97;;
73599;SDS011;61877;48.246;9.220;2024-01-30T07:27:31;42.10;;;19.98;;
73599;SDS011;61877;48.246;9.220;2024-01-30T07:29:58;42.22;;;21.33;;
73599;SDS011;61877;48.246;9.220;2024-01-30T07:32:24;37.95;;;19.25;;
73599;SDS011;61877;48.246;9.220;2024-01-30T07:34:52;36.28;;;17.80;;
73599;SDS011;61877;48.246;9.220;2024-01-30T07:37:33;31.17;;;15.87;;
73599;SDS011;61877;48.246;9.220;2024-01-30T07:40:00;32.75;;;16.20;;
73599;SDS011;61877;48.246;9.220;2024-01-30T07:42:27;30.80;;;16.10;;
73599;SDS011;61877;48.246;9.220;2024-01-30T07:44:56;34.70;;;17.48;;
73599;SDS011;61877;48.246;9.220;2024-01-30T07:47:23;38.85;;;18.85;;
73599;SDS011;61877;48.246;9.220;2024-01-30T07:49:50;36.93;;;19.07;;
73599;SDS011;61877;48.246;9.220;2024-01-30T07:52:18;39.88;;;18.77;;
73599;SDS011;61877;48.246;9.220;2024-01-30T07:54:45;34.88;;;18.30;;
73599;SDS011;61877;48.246;9.220;2024-01-30T07:57:11;35.80;;;18.20;;
73599;SDS011;61877;48.246;9.220;2024-01-30T07:59:38;38.33;;;19.38;;
73599;SDS011;61877;48.246;9.220;2024-01-30T08:02:05;39.93;;;19.07;;
73599;SDS011;61877;48.246;9.220;2024-01-30T08:04:32;37.05;;;18.23;;
73599;SDS011;61877;48.246;9.220;2024-01-30T08:06:58;31.17;;;15.95;;
73599;SDS011;61877;48.246;9.220;2024-01-30T08:09:27;31.08;;;14.98;;
73599;SDS011;61877;48.246;9.220;2024-01-30T08:11:53;29.55;;;14.95;;
73599;SDS011;61877;48.246;9.220;2024-01-30T08:14:20;26.33;;;14.23;;
73599;SDS011;61877;48.246;9.220;2024-01-30T08:16:47;23.60;;;12.48;;
73599;SDS011;61877;48.246;9.220;2024-01-30T08:19:14;26.98;;;14.48;;
73599;SDS011;61877;48.246;9.220;2024-01-30T08:21:42;31.08;;;15.73;;
73599;SDS011;61877;48.246;9.220;2024-01-30T08:24:09;31.83;;;15.48;;
73599;SDS011;61877;48.246;9.220;2024-01-30T08:26:37;30.47;;;16.87;;
73599;SDS011;61877;48.246;9.220;2024-01-30T08:29:04;33.22;;;16.63;;
73599;SDS011;61877;48.246;9.220;2024-01-30T08:31:31;31.65;;;16.45;;
73599;SDS011;61877;48.246;9.220;2024-01-30T08:33:57;32.83;;;15.90;;
73599;SDS011;61877;48.246;9.220;2024-01-30T08:36:24;29.48;;;15.32;;
73599;SDS011;61877;48.246;9.220;2024-01-30T08:38:51;30.90;;;15.10;;
73599;SDS011;61877;48.246;9.220;2024-01-30T08:41:24;28.58;;;14.75;;
73599;SDS011;61877;48.246;9.220;2024-01-30T08:43:52;27.98;;;14.88;;
73599;SDS011;61877;48.246;9.220;2024-01-30T08:46:19;31.48;;;16.35;;
73599;SDS011;61877;48.246;9.220;2024-01-30T08:48:46;28.38;;;15.27;;
73599;SDS011;61877;48.246;9.220;2024-01-30T08:51:16;31.10;;;15.17;;
73599;SDS011;61877;48.246;9.220;2024-01-30T08:53:42;30.08;;;14.52;;
73599;SDS011;61877;48.246;9.220;2024-01-30T08:56:09;27.70;;;14.15;;
73599;SDS011;61877;48.246;9.220;2024-01-30T08:58:36;29.85;;;15.63;;
73599;SDS011;61877;48.246;9.220;2024-01-30T09:01:04;32.17;;;16.23;;
73599;SDS011;61877;48.246;9.220;2024-01-30T09:03:31;31.27;;;16.37;;
73599;SDS011;61877;48.246;9.220;2024-01-30T09:06:00;32.22;;;16.27;;
73599;SDS011;61877;48.246;9.220;2024-01-30T09:08:26;33.40;;;16.45;;
73599;SDS011;61877;48.246;9.220;2024-01-30T09:10:53;35.78;;;18.05;;
73599;SDS011;61877;48.246;9.220;2024-01-30T09:13:20;36.80;;;17.02;;
73599;SDS011;61877;48.246;9.220;2024-01-30T09:15:47;34.00;;;17.30;;
73599;SDS011;61877;48.246;9.220;2024-01-30T09:18:19;29.85;;;16.52;;
73599;SDS011;61877;48.246;9.220;2024-01-30T09:20:48;29.13;;;15.13;;
73599;SDS011;61877;48.246;9.220;2024-01-30T10:22:14;16.02;;;8.27;;
73599;SDS011;61877;48.246;9.220;2024-01-30T10:25:20;16.63;;;8.45;;
73599;SDS011;61877;48.246;9.220;2024-01-30T10:28:28;15.23;;;8.00;;
73599;SDS011;61877;48.246;9.220;2024-01-30T10:37:09;14.90;;;7.80;;
73599;SDS011;61877;48.246;9.220;2024-01-30T11:05:48;16.45;;;9.10;;
73599;SDS011;61877;48.246;9.220;2024-01-30T11:20:03;17.33;;;8.53;;
73599;SDS011;61877;48.246;9.220;2024-01-30T11:29:42;16.50;;;9.00;;
73599;SDS011;61877;48.246;9.220;2024-01-30T11:45:59;15.10;;;7.70;;
73599;SDS011;61877;48.246;9.220;2024-01-30T11:48:29;14.27;;;7.30;;
73599;SDS011;61877;48.246;9.220;2024-01-30T11:51:06;13.77;;;6.60;;
73599;SDS011;61877;48.246;9.220;2024-01-30T11:53:43;13.88;;;7.05;;
73599;SDS011;61877;48.246;9.220;2024-01-30T11:56:18;14.75;;;6.72;;
73599;SDS011;61877;48.246;9.220;2024-01-30T11:58:45;14.38;;;6.75;;
73599;SDS011;61877;48.246;9.220;2024-01-30T12:01:13;14.18;;;7.03;;
73599;SDS011;61877;48.246;9.220;2024-01-30T12:03:40;13.43;;;6.87;;
73599;SDS011;61877;48.246;9.220;2024-01-30T12:06:07;13.68;;;6.72;;
73599;SDS011;61877;48.246;9.220;2024-01-30T12:08:33;13.20;;;6.40;;
73599;SDS011;61877;48.246;9.220;2024-01-30T12:11:00;13.48;;;6.10;;
73599;SDS011;61877;48.246;9.220;2024-01-30T12:13:27;13.05;;;6.40;;
73599;SDS011;61877;48.246;9.220;2024-01-30T12:15:58;13.07;;;6.40;;
73599;SDS011;61877;48.246;9.220;2024-01-30T12:18:27;13.32;;;6.30;;
73599;SDS011;61877;48.246;9.220;2024-01-30T12:20:56;13.00;;;6.43;;
73599;SDS011;61877;48.246;9.220;2024-01-30T12:23:44;13.98;;;6.70;;
73599;SDS011;61877;48.246;9.220;2024-01-30T12:26:13;13.88;;;6.30;;
73599;SDS011;61877;48.246;9.220;2024-01-30T12:28:47;13.10;;;5.90;;
73599;SDS011;61877;48.246;9.220;2024-01-30T12:31:14;13.35;;;6.43;;
73599;SDS011;61877;48.246;9.220;2024-01-30T12:33:42;13.10;;;6.20;;
73599;SDS011;61877;48.246;9.220;2024-01-30T12:36:09;11.68;;;6.07;;
73599;SDS011;61877;48.246;9.220;2024-01-30T12:38:37;13.75;;;6.68;;
73599;SDS011;61877;48.246;9.220;2024-01-30T12:41:06;13.00;;;6.23;;
73599;SDS011;61877;48.246;9.220;2024-01-30T12:43:33;13.68;;;6.82;;
73599;SDS011;61877;48.246;9.220;2024-01-30T12:46:05;14.43;;;6.50;;
73599;SDS011;61877;48.246;9.220;2024-01-30T12:48:32;12.23;;;6.05;;
73599;SDS011;61877;48.246;9.220;2024-01-30T12:51:00;14.80;;;6.82;;
73599;SDS011;61877;48.246;9.220;2024-01-30T12:53:27;13.30;;;6.50;;
73599;SDS011;61877;48.246;9.220;2024-01-30T12:55:54;16.20;;;7.20;;
73599;SDS011;61877;48.246;9.220;2024-01-30T12:58:21;13.05;;;6.35;;
73599;SDS011;61877;48.246;9.220;2024-01-30T13:00:48;13.05;;;6.80;;
73599;SDS011;61877;48.246;9.220;2024-01-30T13:03:14;13.68;;;6.78;;
73599;SDS011;61877;48.246;9.220;2024-01-30T13:05:41;13.77;;;7.13;;
73599;SDS011;61877;48.246;9.220;2024-01-30T13:08:10;13.05;;;7.45;;
73599;SDS011;61877;48.246;9.220;2024-01-30T13:10:36;14.10;;;7.90;;
73599;SDS011;61877;48.246;9.220;2024-01-30T13:13:03;13.45;;;8.00;;
73599;SDS011;61877;48.246;9.220;2024-01-30T13:15:32;14.48;;;7.78;;
73599;SDS011;61877;48.246;9.220;2024-01-30T13:17:58;13.00;;;7.67;;
73599;SDS011;61877;48.246;9.220;2024-01-30T13:20:25;14.27;;;7.75;;
73599;SDS011;61877;48.246;9.220;2024-01-30T13:22:52;13.60;;;7.80;;
73599;SDS011;61877;48.246;9.220;2024-01-30T13:25:21;13.77;;;7.80;;
73599;SDS011;61877;48.246;9.220;2024-01-30T13:27:50;13.45;;;7.68;;
73599;SDS011;61877;48.246;9.220;2024-01-30T13:30:19;13.87;;;8.10;;
73599;SDS011;61877;48.246;9.220;2024-01-30T13:32:46;14.48;;;8.30;;
73599;SDS011;61877;48.246;9.220;2024-01-30T13:35:13;13.88;;;7.90;;
73599;SDS011;61877;48.246;9.220;2024-01-30T13:37:39;14.95;;;8.32;;
73599;SDS011;61877;48.246;9.220;2024-01-30T13:40:06;12.57;;;7.30;;
73599;SDS011;61877;48.246;9.220;2024-01-30T13:42:39;13.60;;;7.90;;
73599;SDS011;61877;48.246;9.220;2024-01-30T13:45:05;14.52;;;8.50;;
73599;SDS011;61877;48.246;9.220;2024-01-30T13:47:32;14.55;;;7.95;;
73599;SDS011;61877;48.246;9.220;2024-01-30T13:49:58;14.65;;;7.68;;
73599;SDS011;61877;48.246;9.220;2024-01-30T13:52:26;13.45;;;7.97;;
73599;SDS011;61877;48.246;9.220;2024-01-30T13:55:00;15.30;;;7.53;;
73599;SDS011;61877;48.246;9.220;2024-01-30T13:57:27;14.15;;;8.02;;
73599;SDS011;61877;48.246;9.220;2024-01-30T13:59:55;15.43;;;7.55;;
73599;SDS011;61877;48.246;9.220;2024-01-30T14:02:22;13.32;;;7.88;;
73599;SDS011;61877;48.246;9.220;2024-01-30T14:04:49;14.13;;;8.00;;
73599;SDS011;61877;48.246;9.220;2024-01-30T14:07:16;15.40;;;7.30;;
73599;SDS011;61877;48.246;9.220;2024-01-30T14:09:44;16.30;;;7.70;;
73599;SDS011;61877;48.246;9.220;2024-01-30T14:12:11;13.65;;;7.30;;
73599;SDS011;61877;48.246;9.220;2024-01-30T14:14:37;15.18;;;8.05;;
73599;SDS011;61877;48.246;9.220;2024-01-30T14:17:05;14.20;;;7.80;;
73599;SDS011;61877;48.246;9.220;2024-01-30T14:19:32;15.40;;;7.20;;
73599;SDS011;61877;48.246;9.220;2024-01-30T14:21:59;15.35;;;8.23;;
73599;SDS011;61877;48.246;9.220;2024-01-30T14:24:25;15.70;;;7.95;;
73599;SDS011;61877;48.246;9.220;2024-01-30T14:26:54;15.82;;;7.65;;
73599;SDS011;61877;48.246;9.220;2024-01-30T14:29:21;14.68;;;7.20;;
73599;SDS011;61877;48.246;9.220;2024-01-30T14:31:48;14.37;;;7.67;;
73599;SDS011;61877;48.246;9.220;2024-01-30T14:34:15;15.75;;;7.03;;
73599;SDS011;61877;48.246;9.220;2024-01-30T14:36:42;14.93;;;7.88;;
73599;SDS011;61877;48.246;9.220;2024-01-30T14:39:11;15.82;;;8.27;;
73599;SDS011;61877;48.246;9.220;2024-01-30T14:41:38;15.68;;;7.60;;
73599;SDS011;61877;48.246;9.220;2024-01-30T14:44:05;18.20;;;7.50;;
73599;SDS011;61877;48.246;9.220;2024-01-30T14:46:35;16.58;;;7.50;;
73599;SDS011;61877;48.246;9.220;2024-01-30T14:49:02;13.40;;;6.90;;
73599;SDS011;61877;48.246;9.220;2024-01-30T14:51:30;15.80;;;7.70;;
73599;SDS011;61877;48.246;9.220;2024-01-30T14:53:57;17.00;;;7.97;;
73599;SDS011;61877;48.246;9.220;2024-01-30T14:56:23;15.50;;;7.80;;
73599;SDS011;61877;48.246;9.220;2024-01-30T14:58:50;17.63;;;8.13;;
73599;SDS011;61877;48.246;9.220;2024-01-30T15:01:16;15.82;;;8.20;;
73599;SDS011;61877;48.246;9.220;2024-01-30T15:03:43;16.63;;;7.90;;
73599;SDS011;61877;48.246;9.220;2024-01-30T15:06:11;16.83;;;8.13;;
73599;SDS011;61877;48.246;9.220;2024-01-30T15:08:40;18.93;;;7.97;;
73599;SDS011;61877;48.246;9.220;2024-01-30T15:11:07;15.27;;;7.22;;
73599;SDS011;61877;48.246;9.220;2024-01-30T15:13:33;15.55;;;7.10;;
73599;SDS011;61877;48.246;9.220;2024-01-30T15:16:00;14.65;;;6.80;;
73599;SDS011;61877;48.246;9.220;2024-01-30T15:18:28;14.77;;;6.93;;
73599;SDS011;61877;48.246;9.220;2024-01-30T15:20:55;13.47;;;6.53;;
73599;SDS011;61877;48.246;9.220;2024-01-30T15:23:22;14.35;;;6.72;;
73599;SDS011;61877;48.246;9.220;2024-01-30T15:25:50;12.93;;;6.50;;
73599;SDS011;61877;48.246;9.220;2024-01-30T15:28:16;14.52;;;6.82;;
73599;SDS011;61877;48.246;9.220;2024-01-30T15:30:43;17.50;;;8.07;;
73599;SDS011;61877;48.246;9.220;2024-01-30T15:33:10;16.87;;;7.00;;
73599;SDS011;61877;48.246;9.220;2024-01-30T15:35:36;14.60;;;6.75;;
73599;SDS011;61877;48.246;9.220;2024-01-30T15:38:03;15.05;;;7.53;;
73599;SDS011;61877;48.246;9.220;2024-01-30T15:40:30;15.52;;;6.53;;
73599;SDS011;61877;48.246;9.220;2024-01-30T15:42:58;13.75;;;6.75;;
73599;SDS011;61877;48.246;9.220;2024-01-30T15:45:24;14.53;;;7.17;;
73599;SDS011;61877;48.246;9.220;2024-01-30T15:47:55;14.25;;;7.07;;
73599;SDS011;61877;48.246;9.220;2024-01-30T15:50:22;16.27;;;8.23;;
73599;SDS011;61877;48.246;9.220;2024-01-30T15:52:49;15.98;;;7.97;;
73599;SDS011;61877;48.246;9.220;2024-01-30T15:55:15;16.00;;;8.23;;
73599;SDS011;61877;48.246;9.220;2024-01-30T15:57:42;16.67;;;7.70;;
73599;SDS011;61877;48.246;9.220;2024-01-30T16:00:11;16.35;;;7.47;;
73599;SDS011;61877;48.246;9.220;2024-01-30T16:02:38;14.93;;;6.97;;
73599;SDS011;61877;48.246;9.220;2024-01-30T16:05:05;15.30;;;7.22;;
73599;SDS011;61877;48.246;9.220;2024-01-30T16:07:32;15.80;;;7.35;;
73599;SDS011;61877;48.246;9.220;2024-01-30T16:10:00;14.80;;;7.43;;
73599;SDS011;61877;48.246;9.220;2024-01-30T16:12:27;15.13;;;7.57;;
73599;SDS011;61877;48.246;9.220;2024-01-30T16:14:53;14.57;;;7.20;;
73599;SDS011;61877;48.246;9.220;2024-01-30T16:17:21;15.10;;;6.88;;
73599;SDS011;61877;48.246;9.220;2024-01-30T16:19:48;13.93;;;6.68;;
73599;SDS011;61877;48.246;9.220;2024-01-30T16:22:14;13.67;;;6.60;;
73599;SDS011;61877;48.246;9.220;2024-01-30T16:24:42;14.05;;;6.57;;
73599;SDS011;61877;48.246;9.220;2024-01-30T16:27:09;11.82;;;5.70;;
73599;SDS011;61877;48.246;9.220;2024-01-30T16:29:36;11.40;;;5.75;;
73599;SDS011;61877;48.246;9.220;2024-01-30T16:32:02;11.70;;;5.93;;
73599;SDS011;61877;48.246;9.220;2024-01-30T16:34:30;12.97;;;6.93;;
73599;SDS011;61877;48.246;9.220;2024-01-30T16:36:57;12.63;;;6.95;;
73599;SDS011;61877;48.246;9.220;2024-01-30T16:39:24;13.55;;;6.53;;
73599;SDS011;61877;48.246;9.220;2024-01-30T16:41:50;14.10;;;6.72;;
73599;SDS011;61877;48.246;9.220;2024-01-30T16:44:17;13.07;;;6.82;;
73599;SDS011;61877;48.246;9.220;2024-01-30T16:46:43;15.63;;;6.90;;
73599;SDS011;61877;48.246;9.220;2024-01-30T16:49:10;13.85;;;6.68;;
73599;SDS011;61877;48.246;9.220;2024-01-30T16:51:38;14.68;;;7.30;;
73599;SDS011;61877;48.246;9.220;2024-01-30T16:54:05;14.05;;;6.95;;
73599;SDS011;61877;48.246;9.220;2024-01-30T16:56:31;13.60;;;7.20;;
73599;SDS011;61877;48.246;9.220;2024-01-30T16:58:58;13.13;;;6.70;;
73599;SDS011;61877;48.246;9.220;2024-01-30T17:01:25;14.95;;;7.28;;
73599;SDS011;61877;48.246;9.220;2024-01-30T17:03:52;15.07;;;7.28;;
73599;SDS011;61877;48.246;9.220;2024-01-30T17:06:19;15.25;;;7.68;;
73599;SDS011;61877;48.246;9.220;2024-01-30T17:08:47;16.02;;;7.40;;
73599;SDS011;61877;48.246;9.220;2024-01-30T17:11:13;14.40;;;7.33;;
73599;SDS011;61877;48.246;9.220;2024-01-30T17:13:40;15.07;;;8.07;;
73599;SDS011;61877;48.246;9.220;2024-01-30T17:16:06;17.33;;;7.75;;
73599;SDS011;61877;48.246;9.220;2024-01-30T17:18:33;14.25;;;7.43;;
73599;SDS011;61877;48.246;9.220;2024-01-30T17:21:00;17.70;;;8.52;;
73599;SDS011;61877;48.246;9.220;2024-01-30T17:23:26;15.50;;;7.77;;
73599;SDS011;61877;48.246;9.220;2024-01-30T17:25:54;17.77;;;8.02;;
73599;SDS011;61877;48.246;9.220;2024-01-30T17:28:21;15.65;;;8.02;;
73599;SDS011;61877;48.246;9.220;2024-01-30T17:30:47;14.88;;;7.68;;
73599;SDS011;61877;48.246;9.220;2024-01-30T17:33:14;15.07;;;7.55;;
73599;SDS011;61877;48.246;9.220;2024-01-30T17:35:41;14.87;;;7.40;;
73599;SDS011;61877;48.246;9.220;2024-01-30T17:38:08;14.77;;;7.78;;
73599;SDS011;61877;48.246;9.220;2024-01-30T17:40:34;14.18;;;6.90;;
73599;SDS011;61877;48.246;9.220;2024-01-30T17:43:02;17.40;;;9.23;;
73599;SDS011;61877;48.246;9.220;2024-01-30T17:45:29;17.42;;;9.02;;
73599;SDS011;61877;48.246;9.220;2024-01-30T17:47:55;16.77;;;9.17;;
73599;SDS011;61877;48.246;9.220;2024-01-30T17:50:22;15.93;;;8.35;;
73599;SDS011;61877;48.246;9.220;2024-01-30T17:52:49;14.18;;;7.85;;
73599;SDS011;61877;48.246;9.220;2024-01-30T17:55:15;15.02;;;7.57;;
73599;SDS011;61877;48.246;9.220;2024-01-30T17:57:44;14.57;;;8.10;;
73599;SDS011;61877;48.246;9.220;2024-01-30T18:00:13;16.03;;;8.17;;
73599;SDS011;61877;48.246;9.220;2024-01-30T18:02:44;14.57;;;7.63;;
73599;SDS011;61877;48.246;9.220;2024-01-30T18:05:11;14.55;;;7.40;;
73599;SDS011;61877;48.246;9.220;2024-01-30T18:07:38;15.23;;;7.85;;
73599;SDS011;61877;48.246;9.220;2024-01-30T18:10:05;15.07;;;7.82;;
73599;SDS011;61877;48.246;9.220;2024-01-30T18:12:32;14.80;;;7.83;;
73599;SDS011;61877;48.246;9.220;2024-01-30T18:14:59;15.43;;;7.97;;
73599;SDS011;61877;48.246;9.220;2024-01-30T18:17:27;17.90;;;8.68;;
73599;SDS011;61877;48.246;9.220;2024-01-30T18:19:54;15.43;;;8.23;;
73599;SDS011;61877;48.246;9.220;2024-01-30T18:22:20;16.05;;;8.00;;
73599;SDS011;61877;48.246;9.220;2024-01-30T18:24:48;14.10;;;7.20;;
73599;SDS011;61877;48.246;9.220;2024-01-30T18:27:17;15.90;;;8.80;;
73599;SDS011;61877;48.246;9.220;2024-01-30T18:29:44;17.95;;;9.20;;
73599;SDS011;61877;48.246;9.220;2024-01-30T18:32:10;17.63;;;8.70;;
73599;SDS011;61877;48.246;9.220;2024-01-30T18:34:38;17.67;;;8.85;;
73599;SDS011;61877;48.246;9.220;2024-01-30T18:37:05;16.70;;;8.67;;
73599;SDS011;61877;48.246;9.220;2024-01-30T18:39:32;16.77;;;9.02;;
73599;SDS011;61877;48.246;9.220;2024-01-30T18:41:58;18.75;;;10.23;;
73599;SDS011;61877;48.246;9.220;2024-01-30T18:44:25;17.15;;;8.40;;
73599;SDS011;61877;48.246;9.220;2024-01-30T18:46:52;16.00;;;7.78;;
73599;SDS011;61877;48.246;9.220;2024-01-30T18:49:18;15.70;;;7.70;;
73599;SDS011;61877;48.246;9.220;2024-01-30T18:51:48;17.00;;;8.25;;
73599;SDS011;61877;48.246;9.220;2024-01-30T18:54:15;15.48;;;7.93;;
73599;SDS011;61877;48.246;9.220;2024-01-30T18:56:41;17.20;;;8.02;;
73599;SDS011;61877;48.246;9.220;2024-01-30T18:59:08;16.83;;;8.18;;
73599;SDS011;61877;48.246;9.220;2024-01-30T19:01:34;21.00;;;9.93;;
73599;SDS011;61877;48.246;9.220;2024-01-30T19:04:01;20.52;;;9.70;;
73599;SDS011;61877;48.246;9.220;2024-01-30T19:06:27;23.50;;;11.88;;
73599;SDS011;61877;48.246;9.220;2024-01-30T19:08:56;22.73;;;11.05;;
73599;SDS011;61877;48.246;9.220;2024-01-30T19:11:22;23.13;;;11.27;;
73599;SDS011;61877;48.246;9.220;2024-01-30T19:13:49;24.77;;;12.33;;
73599;SDS011;61877;48.246;9.220;2024-01-30T19:16:15;26.52;;;12.75;;
73599;SDS011;61877;48.246;9.220;2024-01-30T19:18:42;21.73;;;11.43;;
73599;SDS011;61877;48.246;9.220;2024-01-30T19:21:08;23.08;;;10.93;;
73599;SDS011;61877;48.246;9.220;2024-01-30T19:23:35;19.80;;;10.52;;
73599;SDS011;61877;48.246;9.220;2024-01-30T19:26:03;15.93;;;8.40;;
73599;SDS011;61877;48.246;9.220;2024-01-30T19:28:29;16.60;;;8.82;;
73599;SDS011;61877;48.246;9.220;2024-01-30T19:30:56;16.25;;;8.32;;
73599;SDS011;61877;48.246;9.220;2024-01-30T19:33:23;17.58;;;9.00;;